sensor_id;sensor_type;location;lat;lon;timestamp;temperature;humidity
20422;DHT22;10370;53.102;18.034;2024-02-21T00:00:15;6.20;99.90
20422;DHT22;10370;53.102;18.034;2024-02-21T00:06:01;6.20;99.90
20422;DHT22;10370;53.102;18.034;2024-02-21T00:11:44;6.20;99.90
20422;DHT22;10370;53.102;18.034;2024-02-21T00:17:31;6.20;99.90
20422;DHT22;10370;53.102;18.034;2024-02-21T00:22:56;6.20;99.90
20422;DHT22;10370;53.102;18.034;2024-02-21T00:28:31;6.20;99.90
20422;DHT22;10370;53.102;18.034;2024-02-21T00:34:20;6.20;99.90
20422;DHT22;10370;53.102;18.034;2024-02-21T00:40:12;6.20;99.90
20422;DHT22;10370;53.102;18.034;2024-02-21T00:52:03;6.10;99.90
20422;DHT22;10370;53.102;18.034;2024-02-21T00:57:26;6.00;99.90
20422;DHT22;10370;53.102;18.034;2024-02-21T01:09:11;6.00;99.90
20422;DHT22;10370;53.102;18.034;2024-02-21T01:14:34;6.00;99.90
20422;DHT22;10370;53.102;18.034;2024-02-21T01:19:57;6.00;99.90
20422;DHT22;10370;53.102;18.034;2024-02-21T01:25:19;6.00;99.90
20422;DHT22;10370;53.102;18.034;2024-02-21T01:30:42;6.00;99.90
20422;DHT22;10370;53.102;18.034;2024-02-21T01:36:05;6.00;99.90
20422;DHT22;10370;53.102;18.034;2024-02-21T01:41:31;6.00;99.90
20422;DHT22;10370;53.102;18.034;2024-02-21T01:46:54;5.90;99.90
20422;DHT22;10370;53.102;18.034;2024-02-21T01:52:17;5.90;99.90
20422;DHT22;10370;53.102;18.034;2024-02-21T01:57:41;5.90;99.90
20422;DHT22;10370;53.102;18.034;2024-02-21T02:08:22;5.70;99.90
20422;DHT22;10370;53.102;18.034;2024-02-21T02:13:58;5.70;99.90
20422;DHT22;10370;53.102;18.034;2024-02-21T02:19:46;5.70;99.90
20422;DHT22;10370;53.102;18.034;2024-02-21T02:25:34;5.70;99.90
20422;DHT22;10370;53.102;18.034;2024-02-21T02:31:06;5.80;99.90
20422;DHT22;10370;53.102;18.034;2024-02-21T02:36:32;5.90;99.90
20422;DHT22;10370;53.102;18.034;2024-02-21T02:42:51;6.00;99.90
20422;DHT22;10370;53.102;18.034;2024-02-21T02:48:14;6.00;99.90
20422;DHT22;10370;53.102;18.034;2024-02-21T02:54:11;6.00;99.90
20422;DHT22;10370;53.102;18.034;2024-02-21T02:59:38;6.10;99.90
20422;DHT22;10370;53.102;18.034;2024-02-21T03:05:00;6.10;99.90
20422;DHT22;10370;53.102;18.034;2024-02-21T03:10:24;6.10;99.90
20422;DHT22;10370;53.102;18.034;2024-02-21T03:15:46;6.10;99.90
20422;DHT22;10370;53.102;18.034;2024-02-21T03:21:09;6.10;99.90
20422;DHT22;10370;53.102;18.034;2024-02-21T03:26:35;6.20;99.90
20422;DHT22;10370;53.102;18.034;2024-02-21T03:31:58;6.20;99.90
20422;DHT22;10370;53.102;18.034;2024-02-21T03:37:48;6.20;99.90
20422;DHT22;10370;53.102;18.034;2024-02-21T03:43:11;6.20;99.90
20422;DHT22;10370;53.102;18.034;2024-02-21T03:48:34;6.20;99.90
20422;DHT22;10370;53.102;18.034;2024-02-21T03:53:57;6.20;99.90
20422;DHT22;10370;53.102;18.034;2024-02-21T03:59:19;6.20;99.90
20422;DHT22;10370;53.102;18.034;2024-02-21T04:05:24;6.20;99.90
20422;DHT22;10370;53.102;18.034;2024-02-21T04:10:47;6.20;99.90
20422;DHT22;10370;53.102;18.034;2024-02-21T04:16:17;6.20;99.90
20422;DHT22;10370;53.102;18.034;2024-02-21T04:21:40;6.20;99.90
20422;DHT22;10370;53.102;18.034;2024-02-21T04:33:31;6.10;99.90
20422;DHT22;10370;53.102;18.034;2024-02-21T04:39:27;6.10;99.90
20422;DHT22;10370;53.102;18.034;2024-02-21T04:45:23;6.10;99.90
20422;DHT22;10370;53.102;18.034;2024-02-21T04:50:49;6.30;99.90
20422;DHT22;10370;53.102;18.034;2024-02-21T04:56:24;6.10;99.90
20422;DHT22;10370;53.102;18.034;2024-02-21T05:08:20;6.10;99.90
20422;DHT22;10370;53.102;18.034;2024-02-21T05:13:45;6.20;99.90
20422;DHT22;10370;53.102;18.034;2024-02-21T05:19:27;6.20;99.90
20422;DHT22;10370;53.102;18.034;2024-02-21T05:32:15;6.20;99.90
20422;DHT22;10370;53.102;18.034;2024-02-21T05:37:59;6.10;99.90
20422;DHT22;10370;53.102;18.034;2024-02-21T05:43:28;6.10;99.90
20422;DHT22;10370;53.102;18.034;2024-02-21T05:48:51;6.10;99.90
20422;DHT22;10370;53.102;18.034;2024-02-21T05:54:14;6.10;99.90
20422;DHT22;10370;53.102;18.034;2024-02-21T05:59:44;6.10;99.90
20422;DHT22;10370;53.102;18.034;2024-02-21T06:05:07;6.10;99.90
20422;DHT22;10370;53.102;18.034;2024-02-21T06:10:30;6.10;99.90
20422;DHT22;10370;53.102;18.034;2024-02-21T06:16:12;6.10;99.90
20422;DHT22;10370;53.102;18.034;2024-02-21T06:21:44;6.10;99.90
20422;DHT22;10370;53.102;18.034;2024-02-21T06:27:07;6.10;99.90
20422;DHT22;10370;53.102;18.034;2024-02-21T06:32:41;6.20;99.90
20422;DHT22;10370;53.102;18.034;2024-02-21T06:38:03;6.20;99.90
20422;DHT22;10370;53.102;18.034;2024-02-21T06:43:26;6.20;99.90
20422;DHT22;10370;53.102;18.034;2024-02-21T06:48:49;6.20;99.90
20422;DHT22;10370;53.102;18.034;2024-02-21T06:54:12;6.20;99.90
20422;DHT22;10370;53.102;18.034;2024-02-21T06:59:46;6.20;99.90
20422;DHT22;10370;53.102;18.034;2024-02-21T07:05:34;6.20;99.90
20422;DHT22;10370;53.102;18.034;2024-02-21T07:11:34;6.30;99.90
20422;DHT22;10370;53.102;18.034;2024-02-21T07:16:59;6.30;99.90
20422;DHT22;10370;53.102;18.034;2024-02-21T07:22:21;6.40;99.90
20422;DHT22;10370;53.102;18.034;2024-02-21T07:27:52;6.50;99.90
20422;DHT22;10370;53.102;18.034;2024-02-21T07:33:35;6.50;99.90
20422;DHT22;10370;53.102;18.034;2024-02-21T07:39:07;6.60;99.90
20422;DHT22;10370;53.102;18.034;2024-02-21T07:44:31;6.60;99.90
20422;DHT22;10370;53.102;18.034;2024-02-21T07:49:55;6.60;99.90
20422;DHT22;10370;53.102;18.034;2024-02-21T07:55:18;6.70;99.90
20422;DHT22;10370;53.102;18.034;2024-02-21T08:00:41;6.70;99.90
20422;DHT22;10370;53.102;18.034;2024-02-21T08:06:04;6.70;99.90
20422;DHT22;10370;53.102;18.034;2024-02-21T08:11:27;6.70;99.90
20422;DHT22;10370;53.102;18.034;2024-02-21T08:17:17;6.70;99.90
20422;DHT22;10370;53.102;18.034;2024-02-21T08:22:46;6.70;99.90
20422;DHT22;10370;53.102;18.034;2024-02-21T08:28:09;6.70;99.90
20422;DHT22;10370;53.102;18.034;2024-02-21T08:33:33;6.80;99.90
20422;DHT22;10370;53.102;18.034;2024-02-21T08:39:00;6.80;99.90
20422;DHT22;10370;53.102;18.034;2024-02-21T08:44:25;6.80;99.90
20422;DHT22;10370;53.102;18.034;2024-02-21T08:49:50;6.80;99.90
20422;DHT22;10370;53.102;18.034;2024-02-21T08:55:16;6.80;99.90
20422;DHT22;10370;53.102;18.034;2024-02-21T09:00:39;6.80;99.90
20422;DHT22;10370;53.102;18.034;2024-02-21T09:06:03;6.80;99.90
20422;DHT22;10370;53.102;18.034;2024-02-21T09:11:26;6.90;99.90
20422;DHT22;10370;53.102;18.034;2024-02-21T09:16:50;6.90;99.90
20422;DHT22;10370;53.102;18.034;2024-02-21T09:22:44;7.00;99.90
20422;DHT22;10370;53.102;18.034;2024-02-21T09:28:07;7.00;99.90
20422;DHT22;10370;53.102;18.034;2024-02-21T09:33:30;7.00;99.90
20422;DHT22;10370;53.102;18.034;2024-02-21T09:38:54;7.10;99.90
20422;DHT22;10370;53.102;18.034;2024-02-21T09:44:17;7.10;99.90
20422;DHT22;10370;53.102;18.034;2024-02-21T09:49:42;7.10;99.90
20422;DHT22;10370;53.102;18.034;2024-02-21T09:55:07;7.10;99.90
20422;DHT22;10370;53.102;18.034;2024-02-21T10:01:02;7.20;99.90
20422;DHT22;10370;53.102;18.034;2024-02-21T10:06:59;7.20;99.90
20422;DHT22;10370;53.102;18.034;2024-02-21T10:12:22;7.20;99.90
20422;DHT22;10370;53.102;18.034;2024-02-21T10:18:17;7.20;99.90
20422;DHT22;10370;53.102;18.034;2024-02-21T10:23:48;7.20;99.90
20422;DHT22;10370;53.102;18.034;2024-02-21T10:29:11;7.20;99.90
20422;DHT22;10370;53.102;18.034;2024-02-21T10:34:35;7.30;99.90
20422;DHT22;10370;53.102;18.034;2024-02-21T10:39:58;7.30;99.90
20422;DHT22;10370;53.102;18.034;2024-02-21T10:45:22;7.30;99.90
20422;DHT22;10370;53.102;18.034;2024-02-21T10:50:57;7.30;99.90
20422;DHT22;10370;53.102;18.034;2024-02-21T10:56:26;7.30;99.90
20422;DHT22;10370;53.102;18.034;2024-02-21T11:01:50;7.40;99.90
20422;DHT22;10370;53.102;18.034;2024-02-21T11:07:18;7.40;99.90
20422;DHT22;10370;53.102;18.034;2024-02-21T11:12:42;7.40;99.90
20422;DHT22;10370;53.102;18.034;2024-02-21T11:18:05;7.40;99.90
20422;DHT22;10370;53.102;18.034;2024-02-21T11:23:28;7.50;99.90
20422;DHT22;10370;53.102;18.034;2024-02-21T11:28:58;7.50;99.90
20422;DHT22;10370;53.102;18.034;2024-02-21T11:34:22;7.60;99.90
20422;DHT22;10370;53.102;18.034;2024-02-21T11:39:44;7.60;99.90
20422;DHT22;10370;53.102;18.034;2024-02-21T11:45:25;7.70;99.90
20422;DHT22;10370;53.102;18.034;2024-02-21T11:50:59;7.70;99.90
20422;DHT22;10370;53.102;18.034;2024-02-21T11:56:23;7.80;99.90
20422;DHT22;10370;53.102;18.034;2024-02-21T12:01:48;7.80;99.90
20422;DHT22;10370;53.102;18.034;2024-02-21T12:07:17;7.80;99.90
20422;DHT22;10370;53.102;18.034;2024-02-21T12:12:41;7.80;99.90
20422;DHT22;10370;53.102;18.034;2024-02-21T12:18:06;7.80;99.90
20422;DHT22;10370;53.102;18.034;2024-02-21T12:23:35;7.80;99.90
20422;DHT22;10370;53.102;18.034;2024-02-21T12:29:00;7.80;99.90
20422;DHT22;10370;53.102;18.034;2024-02-21T12:34:24;7.80;99.90
20422;DHT22;10370;53.102;18.034;2024-02-21T12:39:55;7.80;99.90
20422;DHT22;10370;53.102;18.034;2024-02-21T12:45:18;7.80;99.90
20422;DHT22;10370;53.102;18.034;2024-02-21T12:50:51;7.80;99.90
20422;DHT22;10370;53.102;18.034;2024-02-21T12:56:14;7.80;99.90
20422;DHT22;10370;53.102;18.034;2024-02-21T13:01:44;7.80;99.90
20422;DHT22;10370;53.102;18.034;2024-02-21T13:07:08;7.80;99.90
20422;DHT22;10370;53.102;18.034;2024-02-21T13:12:31;7.80;99.90
20422;DHT22;10370;53.102;18.034;2024-02-21T13:18:11;7.80;99.90
20422;DHT22;10370;53.102;18.034;2024-02-21T13:23:34;7.80;99.90
20422;DHT22;10370;53.102;18.034;2024-02-21T13:28:57;7.80;99.90
20422;DHT22;10370;53.102;18.034;2024-02-21T13:34:20;7.80;99.90
20422;DHT22;10370;53.102;18.034;2024-02-21T13:39:43;7.80;99.90
20422;DHT22;10370;53.102;18.034;2024-02-21T13:45:20;7.80;99.90
20422;DHT22;10370;53.102;18.034;2024-02-21T13:51:07;7.80;99.90
20422;DHT22;10370;53.102;18.034;2024-02-21T13:56:34;7.80;99.90
20422;DHT22;10370;53.102;18.034;2024-02-21T14:02:21;7.80;99.90
20422;DHT22;10370;53.102;18.034;2024-02-21T14:07:45;7.80;99.90
20422;DHT22;10370;53.102;18.034;2024-02-21T14:13:09;7.80;99.90
20422;DHT22;10370;53.102;18.034;2024-02-21T14:19:15;7.80;99.90
20422;DHT22;10370;53.102;18.034;2024-02-21T14:24:21;7.80;99.90
20422;DHT22;10370;53.102;18.034;2024-02-21T14:29:45;7.80;99.90
20422;DHT22;10370;53.102;18.034;2024-02-21T14:35:08;7.80;99.90
20422;DHT22;10370;53.102;18.034;2024-02-21T14:40:38;7.80;99.90
20422;DHT22;10370;53.102;18.034;2024-02-21T14:46:01;7.80;99.90
20422;DHT22;10370;53.102;18.034;2024-02-21T14:51:29;7.80;99.90
20422;DHT22;10370;53.102;18.034;2024-02-21T14:56:53;7.80;99.90
20422;DHT22;10370;53.102;18.034;2024-02-21T15:02:16;7.80;99.90
20422;DHT22;10370;53.102;18.034;2024-02-21T15:07:40;7.80;99.90
20422;DHT22;10370;53.102;18.034;2024-02-21T15:13:04;7.80;99.90
20422;DHT22;10370;53.102;18.034;2024-02-21T15:18:27;7.80;99.90
20422;DHT22;10370;53.102;18.034;2024-02-21T15:23:50;7.80;99.90
20422;DHT22;10370;53.102;18.034;2024-02-21T15:29:13;7.80;99.90
20422;DHT22;10370;53.102;18.034;2024-02-21T15:34:39;7.80;99.90
20422;DHT22;10370;53.102;18.034;2024-02-21T15:40:02;7.70;99.90
20422;DHT22;10370;53.102;18.034;2024-02-21T15:45:39;7.70;99.90
20422;DHT22;10370;53.102;18.034;2024-02-21T15:51:05;7.60;99.90
20422;DHT22;10370;53.102;18.034;2024-02-21T15:56:28;7.60;99.90
20422;DHT22;10370;53.102;18.034;2024-02-21T16:01:51;7.60;99.90
20422;DHT22;10370;53.102;18.034;2024-02-21T16:07:14;7.60;99.90
20422;DHT22;10370;53.102;18.034;2024-02-21T16:12:40;7.60;99.90
20422;DHT22;10370;53.102;18.034;2024-02-21T16:18:06;7.60;99.90
20422;DHT22;10370;53.102;18.034;2024-02-21T16:23:29;7.60;99.90
20422;DHT22;10370;53.102;18.034;2024-02-21T16:28:52;7.50;99.90
20422;DHT22;10370;53.102;18.034;2024-02-21T16:34:22;7.50;99.90
20422;DHT22;10370;53.102;18.034;2024-02-21T16:39:46;7.50;99.90
20422;DHT22;10370;53.102;18.034;2024-02-21T16:45:09;7.50;99.90
20422;DHT22;10370;53.102;18.034;2024-02-21T16:50:32;7.50;99.90
20422;DHT22;10370;53.102;18.034;2024-02-21T16:56:02;7.50;99.90
20422;DHT22;10370;53.102;18.034;2024-02-21T17:01:35;7.40;99.90
20422;DHT22;10370;53.102;18.034;2024-02-21T17:07:37;7.40;99.90
20422;DHT22;10370;53.102;18.034;2024-02-21T17:13:00;7.40;99.90
20422;DHT22;10370;53.102;18.034;2024-02-21T17:18:24;7.40;99.90
20422;DHT22;10370;53.102;18.034;2024-02-21T17:23:49;7.30;99.90
20422;DHT22;10370;53.102;18.034;2024-02-21T17:29:11;7.30;99.90
20422;DHT22;10370;53.102;18.034;2024-02-21T17:34:35;7.20;99.90
20422;DHT22;10370;53.102;18.034;2024-02-21T17:39:58;7.20;99.90
20422;DHT22;10370;53.102;18.034;2024-02-21T17:45:21;7.20;99.90
20422;DHT22;10370;53.102;18.034;2024-02-21T17:50:44;7.30;99.90
20422;DHT22;10370;53.102;18.034;2024-02-21T17:56:06;7.30;99.90
20422;DHT22;10370;53.102;18.034;2024-02-21T18:01:30;7.30;99.90
20422;DHT22;10370;53.102;18.034;2024-02-21T18:06:53;7.30;99.90
20422;DHT22;10370;53.102;18.034;2024-02-21T18:12:16;7.30;99.90
20422;DHT22;10370;53.102;18.034;2024-02-21T18:17:39;7.30;99.90
20422;DHT22;10370;53.102;18.034;2024-02-21T18:23:03;7.20;99.90
20422;DHT22;10370;53.102;18.034;2024-02-21T18:28:26;7.20;99.90
20422;DHT22;10370;53.102;18.034;2024-02-21T18:33:55;7.10;99.90
20422;DHT22;10370;53.102;18.034;2024-02-21T18:39:44;7.10;99.90
20422;DHT22;10370;53.102;18.034;2024-02-21T18:45:09;7.00;99.90
20422;DHT22;10370;53.102;18.034;2024-02-21T18:50:46;7.00;99.90
20422;DHT22;10370;53.102;18.034;2024-02-21T18:56:09;6.90;99.90
20422;DHT22;10370;53.102;18.034;2024-02-21T19:01:32;6.90;99.90
20422;DHT22;10370;53.102;18.034;2024-02-21T19:06:58;7.00;99.90
20422;DHT22;10370;53.102;18.034;2024-02-21T19:12:28;6.90;99.90
20422;DHT22;10370;53.102;18.034;2024-02-21T19:18:04;6.90;99.90
20422;DHT22;10370;53.102;18.034;2024-02-21T19:23:54;6.90;99.90
20422;DHT22;10370;53.102;18.034;2024-02-21T19:29:42;6.80;99.90
20422;DHT22;10370;53.102;18.034;2024-02-21T19:35:05;6.80;99.90
20422;DHT22;10370;53.102;18.034;2024-02-21T19:40:29;6.80;99.90
20422;DHT22;10370;53.102;18.034;2024-02-21T19:46:55;6.80;99.90
20422;DHT22;10370;53.102;18.034;2024-02-21T19:52:24;6.80;99.90
20422;DHT22;10370;53.102;18.034;2024-02-21T19:58:17;6.80;99.90
20422;DHT22;10370;53.102;18.034;2024-02-21T20:04:01;6.90;99.90
20422;DHT22;10370;53.102;18.034;2024-02-21T20:09:31;6.90;99.90
20422;DHT22;10370;53.102;18.034;2024-02-21T20:14:55;6.90;99.90
20422;DHT22;10370;53.102;18.034;2024-02-21T20:20:18;6.90;99.90
20422;DHT22;10370;53.102;18.034;2024-02-21T20:25:48;6.90;99.90
20422;DHT22;10370;53.102;18.034;2024-02-21T20:37:48;7.00;99.90
20422;DHT22;10370;53.102;18.034;2024-02-21T20:43:19;7.00;99.90
20422;DHT22;10370;53.102;18.034;2024-02-21T20:48:45;7.00;99.90
20422;DHT22;10370;53.102;18.034;2024-02-21T20:54:08;6.90;99.90
20422;DHT22;10370;53.102;18.034;2024-02-21T20:59:32;6.90;99.90
20422;DHT22;10370;53.102;18.034;2024-02-21T21:04:55;6.80;99.90
20422;DHT22;10370;53.102;18.034;2024-02-21T21:10:20;6.80;99.90
20422;DHT22;10370;53.102;18.034;2024-02-21T21:16:05;6.80;99.90
20422;DHT22;10370;53.102;18.034;2024-02-21T21:21:30;6.70;99.90
20422;DHT22;10370;53.102;18.034;2024-02-21T21:27:03;6.60;99.90
20422;DHT22;10370;53.102;18.034;2024-02-21T21:32:38;6.70;99.90
20422;DHT22;10370;53.102;18.034;2024-02-21T21:38:01;6.70;99.90
20422;DHT22;10370;53.102;18.034;2024-02-21T21:43:26;6.70;99.90
20422;DHT22;10370;53.102;18.034;2024-02-21T21:49:29;6.80;99.90
20422;DHT22;10370;53.102;18.034;2024-02-21T21:54:52;6.80;99.90
20422;DHT22;10370;53.102;18.034;2024-02-21T22:00:22;6.80;99.90
20422;DHT22;10370;53.102;18.034;2024-02-21T22:11:51;6.70;99.90
20422;DHT22;10370;53.102;18.034;2024-02-21T22:17:20;6.60;99.90
20422;DHT22;10370;53.102;18.034;2024-02-21T22:22:43;6.60;99.90
20422;DHT22;10370;53.102;18.034;2024-02-21T22:28:29;6.60;99.90
20422;DHT22;10370;53.102;18.034;2024-02-21T22:34:02;6.60;99.90
20422;DHT22;10370;53.102;18.034;2024-02-21T22:39:58;6.60;99.90
20422;DHT22;10370;53.102;18.034;2024-02-21T22:45:20;6.60;99.90
20422;DHT22;10370;53.102;18.034;2024-02-21T22:50:43;6.50;99.90
20422;DHT22;10370;53.102;18.034;2024-02-21T22:56:06;6.40;99.90
20422;DHT22;10370;53.102;18.034;2024-02-21T23:01:29;6.40;99.90
20422;DHT22;10370;53.102;18.034;2024-02-21T23:06:52;6.40;99.90
20422;DHT22;10370;53.102;18.034;2024-02-21T23:12:15;6.40;99.90
20422;DHT22;10370;53.102;18.034;2024-02-21T23:17:40;6.30;99.90
20422;DHT22;10370;53.102;18.034;2024-02-21T23:23:03;6.10;99.90
20422;DHT22;10370;53.102;18.034;2024-02-21T23:28:27;6.00;99.90
20422;DHT22;10370;53.102;18.034;2024-02-21T23:33:57;6.10;99.90
20422;DHT22;10370;53.102;18.034;2024-02-21T23:39:20;6.20;99.90
20422;DHT22;10370;53.102;18.034;2024-02-21T23:44:43;6.30;99.90
20422;DHT22;10370;53.102;18.034;2024-02-21T23:50:06;6.30;99.90
20422;DHT22;10370;53.102;18.034;2024-02-21T23:55:43;6.30;99.90
